sensor_id;sensor_type;location;lat;lon;timestamp;P1;durP1;ratioP1;P2;durP2;ratioP2
24813;SDS011;12904;50.088;11.414;2023-03-03T00:01:01;30.23;;;17.65;;
24813;SDS011;12904;50.088;11.414;2023-03-03T00:03:28;33.40;;;17.23;;
24813;SDS011;12904;50.088;11.414;2023-03-03T00:05:53;27.92;;;15.93;;
24813;SDS011;12904;50.088;11.414;2023-03-03T00:08:19;28.42;;;15.30;;
24813;SDS011;12904;50.088;11.414;2023-03-03T00:10:45;27.60;;;15.63;;
24813;SDS011;12904;50.088;11.414;2023-03-03T00:13:12;29.88;;;16.92;;
24813;SDS011;12904;50.088;11.414;2023-03-03T00:18:50;29.33;;;15.48;;
24813;SDS011;12904;50.088;11.414;2023-03-03T00:21:01;32.55;;;15.90;;
24813;SDS011;12904;50.088;11.414;2023-03-03T00:26:00;32.55;;;17.55;;
24813;SDS011;12904;50.088;11.414;2023-03-03T00:30:55;34.70;;;18.10;;
24813;SDS011;12904;50.088;11.414;2023-03-03T00:33:29;39.22;;;19.35;;
24813;SDS011;12904;50.088;11.414;2023-03-03T00:36:39;34.45;;;19.33;;
24813;SDS011;12904;50.088;11.414;2023-03-03T00:38:52;42.53;;;20.73;;
24813;SDS011;12904;50.088;11.414;2023-03-03T00:41:19;68.22;;;25.02;;
24813;SDS011;12904;50.088;11.414;2023-03-03T00:43:48;42.67;;;20.10;;
24813;SDS011;12904;50.088;11.414;2023-03-03T00:46:17;40.05;;;19.38;;
24813;SDS011;12904;50.088;11.414;2023-03-03T00:51:18;34.35;;;17.25;;
24813;SDS011;12904;50.088;11.414;2023-03-03T00:53:54;36.50;;;19.13;;
24813;SDS011;12904;50.088;11.414;2023-03-03T00:56:21;46.50;;;20.17;;
24813;SDS011;12904;50.088;11.414;2023-03-03T00:58:47;39.22;;;20.25;;
24813;SDS011;12904;50.088;11.414;2023-03-03T01:01:13;38.25;;;19.77;;
24813;SDS011;12904;50.088;11.414;2023-03-03T01:03:40;45.63;;;20.25;;
24813;SDS011;12904;50.088;11.414;2023-03-03T01:06:06;39.20;;;19.60;;
24813;SDS011;12904;50.088;11.414;2023-03-03T01:08:32;42.55;;;20.58;;
24813;SDS011;12904;50.088;11.414;2023-03-03T01:10:59;43.97;;;20.90;;
24813;SDS011;12904;50.088;11.414;2023-03-03T01:13:33;38.40;;;20.30;;
24813;SDS011;12904;50.088;11.414;2023-03-03T01:16:02;41.92;;;21.30;;
24813;SDS011;12904;50.088;11.414;2023-03-03T01:18:28;41.58;;;20.45;;
24813;SDS011;12904;50.088;11.414;2023-03-03T01:20:54;47.92;;;23.75;;
24813;SDS011;12904;50.088;11.414;2023-03-03T01:23:20;52.10;;;22.25;;
24813;SDS011;12904;50.088;11.414;2023-03-03T01:25:46;40.45;;;19.73;;
24813;SDS011;12904;50.088;11.414;2023-03-03T01:28:11;42.45;;;20.65;;
24813;SDS011;12904;50.088;11.414;2023-03-03T01:30:37;41.97;;;21.85;;
24813;SDS011;12904;50.088;11.414;2023-03-03T01:33:03;44.03;;;21.08;;
24813;SDS011;12904;50.088;11.414;2023-03-03T01:35:28;46.47;;;20.35;;
24813;SDS011;12904;50.088;11.414;2023-03-03T01:37:54;39.72;;;19.25;;
24813;SDS011;12904;50.088;11.414;2023-03-03T01:40:22;46.42;;;22.10;;
24813;SDS011;12904;50.088;11.414;2023-03-03T01:42:52;45.97;;;21.48;;
24813;SDS011;12904;50.088;11.414;2023-03-03T01:48:02;39.72;;;20.85;;
24813;SDS011;12904;50.088;11.414;2023-03-03T01:53:04;46.17;;;21.25;;
24813;SDS011;12904;50.088;11.414;2023-03-03T01:55:36;49.10;;;21.55;;
24813;SDS011;12904;50.088;11.414;2023-03-03T01:58:06;48.60;;;22.45;;
24813;SDS011;12904;50.088;11.414;2023-03-03T02:00:37;38.75;;;21.08;;
24813;SDS011;12904;50.088;11.414;2023-03-03T02:03:04;43.75;;;21.58;;
24813;SDS011;12904;50.088;11.414;2023-03-03T02:05:30;47.92;;;21.58;;
24813;SDS011;12904;50.088;11.414;2023-03-03T02:07:57;48.28;;;21.75;;
24813;SDS011;12904;50.088;11.414;2023-03-03T02:10:23;46.10;;;21.60;;
24813;SDS011;12904;50.088;11.414;2023-03-03T02:12:50;43.38;;;20.85;;
24813;SDS011;12904;50.088;11.414;2023-03-03T02:15:24;43.70;;;19.67;;
24813;SDS011;12904;50.088;11.414;2023-03-03T02:18:04;47.88;;;23.10;;
24813;SDS011;12904;50.088;11.414;2023-03-03T02:23:17;45.78;;;21.27;;
24813;SDS011;12904;50.088;11.414;2023-03-03T02:28:21;45.92;;;23.38;;
24813;SDS011;12904;50.088;11.414;2023-03-03T02:30:48;58.53;;;24.63;;
24813;SDS011;12904;50.088;11.414;2023-03-03T02:33:14;49.58;;;24.98;;
24813;SDS011;12904;50.088;11.414;2023-03-03T02:35:40;58.03;;;26.33;;
24813;SDS011;12904;50.088;11.414;2023-03-03T02:38:17;64.32;;;27.83;;
24813;SDS011;12904;50.088;11.414;2023-03-03T02:43:51;68.07;;;28.88;;
24813;SDS011;12904;50.088;11.414;2023-03-03T02:46:27;78.43;;;31.00;;
24813;SDS011;12904;50.088;11.414;2023-03-03T02:48:56;67.97;;;28.60;;
24813;SDS011;12904;50.088;11.414;2023-03-03T02:51:22;66.40;;;27.13;;
24813;SDS011;12904;50.088;11.414;2023-03-03T02:53:48;58.83;;;26.23;;
24813;SDS011;12904;50.088;11.414;2023-03-03T02:56:14;52.17;;;23.67;;
24813;SDS011;12904;50.088;11.414;2023-03-03T02:58:39;58.55;;;23.98;;
24813;SDS011;12904;50.088;11.414;2023-03-03T03:01:05;51.05;;;24.48;;
24813;SDS011;12904;50.088;11.414;2023-03-03T03:03:31;55.17;;;24.40;;
24813;SDS011;12904;50.088;11.414;2023-03-03T03:05:56;66.05;;;27.70;;
24813;SDS011;12904;50.088;11.414;2023-03-03T03:08:22;59.95;;;24.40;;
24813;SDS011;12904;50.088;11.414;2023-03-03T03:10:49;53.97;;;24.67;;
24813;SDS011;12904;50.088;11.414;2023-03-03T03:13:15;56.83;;;25.83;;
24813;SDS011;12904;50.088;11.414;2023-03-03T03:15:40;62.40;;;25.65;;
24813;SDS011;12904;50.088;11.414;2023-03-03T03:18:09;58.40;;;25.10;;
24813;SDS011;12904;50.088;11.414;2023-03-03T03:20:35;57.83;;;26.25;;
24813;SDS011;12904;50.088;11.414;2023-03-03T03:23:01;59.53;;;26.88;;
24813;SDS011;12904;50.088;11.414;2023-03-03T03:25:27;66.68;;;28.00;;
24813;SDS011;12904;50.088;11.414;2023-03-03T03:27:53;73.43;;;29.33;;
24813;SDS011;12904;50.088;11.414;2023-03-03T03:30:18;70.25;;;28.20;;
24813;SDS011;12904;50.088;11.414;2023-03-03T03:32:45;70.25;;;29.05;;
24813;SDS011;12904;50.088;11.414;2023-03-03T03:35:11;66.70;;;26.30;;
24813;SDS011;12904;50.088;11.414;2023-03-03T03:37:37;64.38;;;25.02;;
24813;SDS011;12904;50.088;11.414;2023-03-03T03:40:03;65.28;;;26.75;;
24813;SDS011;12904;50.088;11.414;2023-03-03T03:42:30;60.10;;;26.17;;
24813;SDS011;12904;50.088;11.414;2023-03-03T03:44:56;52.83;;;23.40;;
24813;SDS011;12904;50.088;11.414;2023-03-03T03:47:21;59.08;;;29.23;;
24813;SDS011;12904;50.088;11.414;2023-03-03T03:49:47;62.90;;;25.35;;
24813;SDS011;12904;50.088;11.414;2023-03-03T03:52:13;61.00;;;25.63;;
24813;SDS011;12904;50.088;11.414;2023-03-03T03:54:38;66.15;;;26.42;;
24813;SDS011;12904;50.088;11.414;2023-03-03T03:57:04;58.45;;;24.70;;
24813;SDS011;12904;50.088;11.414;2023-03-03T03:59:29;63.25;;;27.45;;
24813;SDS011;12904;50.088;11.414;2023-03-03T04:01:55;64.05;;;27.40;;
24813;SDS011;12904;50.088;11.414;2023-03-03T04:04:21;59.90;;;24.88;;
24813;SDS011;12904;50.088;11.414;2023-03-03T04:06:47;62.30;;;25.48;;
24813;SDS011;12904;50.088;11.414;2023-03-03T04:09:13;70.72;;;28.92;;
24813;SDS011;12904;50.088;11.414;2023-03-03T04:11:39;62.90;;;25.60;;
24813;SDS011;12904;50.088;11.414;2023-03-03T04:14:05;72.20;;;27.83;;
24813;SDS011;12904;50.088;11.414;2023-03-03T04:16:31;68.00;;;26.08;;
24813;SDS011;12904;50.088;11.414;2023-03-03T04:18:57;54.97;;;24.27;;
24813;SDS011;12904;50.088;11.414;2023-03-03T04:21:22;55.70;;;25.45;;
24813;SDS011;12904;50.088;11.414;2023-03-03T04:23:49;62.40;;;26.15;;
24813;SDS011;12904;50.088;11.414;2023-03-03T04:26:14;74.03;;;31.00;;
24813;SDS011;12904;50.088;11.414;2023-03-03T04:28:40;75.53;;;29.33;;
24813;SDS011;12904;50.088;11.414;2023-03-03T04:31:06;71.03;;;28.10;;
24813;SDS011;12904;50.088;11.414;2023-03-03T04:33:31;73.40;;;30.00;;
24813;SDS011;12904;50.088;11.414;2023-03-03T04:35:57;71.72;;;29.55;;
24813;SDS011;12904;50.088;11.414;2023-03-03T04:38:23;90.88;;;35.20;;
24813;SDS011;12904;50.088;11.414;2023-03-03T04:40:48;78.03;;;32.95;;
24813;SDS011;12904;50.088;11.414;2023-03-03T04:43:14;82.85;;;31.40;;
24813;SDS011;12904;50.088;11.414;2023-03-03T04:45:40;83.28;;;31.70;;
24813;SDS011;12904;50.088;11.414;2023-03-03T04:48:05;74.97;;;30.98;;
24813;SDS011;12904;50.088;11.414;2023-03-03T04:50:31;85.80;;;33.10;;
24813;SDS011;12904;50.088;11.414;2023-03-03T04:52:58;85.35;;;32.83;;
24813;SDS011;12904;50.088;11.414;2023-03-03T04:55:24;76.93;;;30.95;;
24813;SDS011;12904;50.088;11.414;2023-03-03T04:57:49;85.93;;;32.95;;
24813;SDS011;12904;50.088;11.414;2023-03-03T05:00:15;86.13;;;31.92;;
24813;SDS011;12904;50.088;11.414;2023-03-03T05:02:41;81.55;;;31.67;;
24813;SDS011;12904;50.088;11.414;2023-03-03T05:05:07;88.57;;;35.38;;
24813;SDS011;12904;50.088;11.414;2023-03-03T05:07:37;100.90;;;38.97;;
24813;SDS011;12904;50.088;11.414;2023-03-03T05:10:04;103.68;;;40.35;;
24813;SDS011;12904;50.088;11.414;2023-03-03T05:12:31;76.97;;;29.77;;
24813;SDS011;12904;50.088;11.414;2023-03-03T05:14:56;73.85;;;28.40;;
24813;SDS011;12904;50.088;11.414;2023-03-03T05:17:22;76.70;;;30.45;;
24813;SDS011;12904;50.088;11.414;2023-03-03T05:19:47;74.13;;;29.58;;
24813;SDS011;12904;50.088;11.414;2023-03-03T05:22:13;72.55;;;30.65;;
24813;SDS011;12904;50.088;11.414;2023-03-03T05:24:39;69.72;;;28.25;;
24813;SDS011;12904;50.088;11.414;2023-03-03T05:27:06;69.95;;;29.92;;
24813;SDS011;12904;50.088;11.414;2023-03-03T05:29:32;121.22;;;47.17;;
24813;SDS011;12904;50.088;11.414;2023-03-03T05:31:58;96.18;;;38.47;;
24813;SDS011;12904;50.088;11.414;2023-03-03T05:34:24;86.88;;;37.97;;
24813;SDS011;12904;50.088;11.414;2023-03-03T05:36:50;90.85;;;38.45;;
24813;SDS011;12904;50.088;11.414;2023-03-03T05:39:15;84.82;;;32.95;;
24813;SDS011;12904;50.088;11.414;2023-03-03T05:41:41;76.57;;;29.20;;
24813;SDS011;12904;50.088;11.414;2023-03-03T05:44:07;80.30;;;31.90;;
24813;SDS011;12904;50.088;11.414;2023-03-03T05:46:33;80.82;;;31.23;;
24813;SDS011;12904;50.088;11.414;2023-03-03T05:48:58;76.85;;;30.10;;
24813;SDS011;12904;50.088;11.414;2023-03-03T05:51:24;81.05;;;31.83;;
24813;SDS011;12904;50.088;11.414;2023-03-03T05:53:50;77.55;;;31.73;;
24813;SDS011;12904;50.088;11.414;2023-03-03T05:56:15;84.50;;;32.30;;
24813;SDS011;12904;50.088;11.414;2023-03-03T05:58:41;81.32;;;33.70;;
24813;SDS011;12904;50.088;11.414;2023-03-03T06:01:07;82.40;;;33.00;;
24813;SDS011;12904;50.088;11.414;2023-03-03T06:03:32;75.45;;;31.50;;
24813;SDS011;12904;50.088;11.414;2023-03-03T06:05:58;83.28;;;33.22;;
24813;SDS011;12904;50.088;11.414;2023-03-03T06:08:24;90.82;;;33.78;;
24813;SDS011;12904;50.088;11.414;2023-03-03T06:10:49;81.88;;;32.72;;
24813;SDS011;12904;50.088;11.414;2023-03-03T06:13:15;81.32;;;34.42;;
24813;SDS011;12904;50.088;11.414;2023-03-03T06:15:41;77.05;;;31.08;;
24813;SDS011;12904;50.088;11.414;2023-03-03T06:18:06;89.53;;;33.72;;
24813;SDS011;12904;50.088;11.414;2023-03-03T06:20:32;82.90;;;35.65;;
24813;SDS011;12904;50.088;11.414;2023-03-03T06:22:59;80.57;;;35.38;;
24813;SDS011;12904;50.088;11.414;2023-03-03T06:25:25;84.80;;;36.13;;
24813;SDS011;12904;50.088;11.414;2023-03-03T06:27:51;88.30;;;35.22;;
24813;SDS011;12904;50.088;11.414;2023-03-03T06:30:16;101.38;;;38.95;;
24813;SDS011;12904;50.088;11.414;2023-03-03T06:32:43;101.80;;;46.22;;
24813;SDS011;12904;50.088;11.414;2023-03-03T06:35:08;105.97;;;48.65;;
24813;SDS011;12904;50.088;11.414;2023-03-03T06:37:34;91.57;;;38.83;;
24813;SDS011;12904;50.088;11.414;2023-03-03T06:40:00;71.70;;;32.78;;
24813;SDS011;12904;50.088;11.414;2023-03-03T06:42:26;78.32;;;34.20;;
24813;SDS011;12904;50.088;11.414;2023-03-03T06:44:51;65.82;;;27.80;;
24813;SDS011;12904;50.088;11.414;2023-03-03T06:47:17;65.63;;;28.83;;
24813;SDS011;12904;50.088;11.414;2023-03-03T06:49:43;76.75;;;33.50;;
24813;SDS011;12904;50.088;11.414;2023-03-03T06:52:10;82.25;;;33.60;;
24813;SDS011;12904;50.088;11.414;2023-03-03T06:54:38;60.03;;;26.42;;
24813;SDS011;12904;50.088;11.414;2023-03-03T06:57:19;61.97;;;25.00;;
24813;SDS011;12904;50.088;11.414;2023-03-03T07:00:05;115.95;;;45.78;;
24813;SDS011;12904;50.088;11.414;2023-03-03T07:02:44;112.72;;;42.20;;
24813;SDS011;12904;50.088;11.414;2023-03-03T07:05:33;67.00;;;30.83;;
24813;SDS011;12904;50.088;11.414;2023-03-03T07:07:59;69.05;;;29.67;;
24813;SDS011;12904;50.088;11.414;2023-03-03T07:10:26;45.25;;;23.48;;
24813;SDS011;12904;50.088;11.414;2023-03-03T07:12:53;48.25;;;21.77;;
24813;SDS011;12904;50.088;11.414;2023-03-03T07:15:23;53.45;;;23.25;;
24813;SDS011;12904;50.088;11.414;2023-03-03T07:17:54;45.55;;;20.60;;
24813;SDS011;12904;50.088;11.414;2023-03-03T07:20:27;42.60;;;21.80;;
24813;SDS011;12904;50.088;11.414;2023-03-03T07:22:57;38.03;;;20.13;;
24813;SDS011;12904;50.088;11.414;2023-03-03T07:25:41;41.00;;;20.45;;
24813;SDS011;12904;50.088;11.414;2023-03-03T07:28:12;40.00;;;19.65;;
24813;SDS011;12904;50.088;11.414;2023-03-03T07:30:40;31.40;;;15.40;;
24813;SDS011;12904;50.088;11.414;2023-03-03T07:33:07;42.65;;;20.55;;
24813;SDS011;12904;50.088;11.414;2023-03-03T07:35:45;42.38;;;20.42;;
24813;SDS011;12904;50.088;11.414;2023-03-03T07:38:27;40.83;;;21.85;;
24813;SDS011;12904;50.088;11.414;2023-03-03T07:40:54;41.95;;;20.45;;
24813;SDS011;12904;50.088;11.414;2023-03-03T07:43:29;38.67;;;20.40;;
24813;SDS011;12904;50.088;11.414;2023-03-03T07:48:39;32.72;;;18.10;;
24813;SDS011;12904;50.088;11.414;2023-03-03T07:51:20;38.90;;;20.05;;
24813;SDS011;12904;50.088;11.414;2023-03-03T07:53:49;34.55;;;17.67;;
24813;SDS011;12904;50.088;11.414;2023-03-03T07:56:34;29.55;;;16.88;;
24813;SDS011;12904;50.088;11.414;2023-03-03T07:59:15;26.85;;;14.02;;
24813;SDS011;12904;50.088;11.414;2023-03-03T08:01:48;33.08;;;16.98;;
24813;SDS011;12904;50.088;11.414;2023-03-03T08:06:43;28.50;;;16.30;;
24813;SDS011;12904;50.088;11.414;2023-03-03T08:11:42;36.10;;;17.95;;
24813;SDS011;12904;50.088;11.414;2023-03-03T08:14:15;33.22;;;16.95;;
24813;SDS011;12904;50.088;11.414;2023-03-03T08:16:50;28.77;;;15.77;;
24813;SDS011;12904;50.088;11.414;2023-03-03T08:19:16;32.38;;;18.02;;
24813;SDS011;12904;50.088;11.414;2023-03-03T08:21:42;32.83;;;16.92;;
24813;SDS011;12904;50.088;11.414;2023-03-03T08:24:08;32.20;;;16.13;;
24813;SDS011;12904;50.088;11.414;2023-03-03T08:26:34;31.75;;;17.50;;
24813;SDS011;12904;50.088;11.414;2023-03-03T08:28:59;28.65;;;16.98;;
24813;SDS011;12904;50.088;11.414;2023-03-03T08:31:25;29.20;;;16.77;;
24813;SDS011;12904;50.088;11.414;2023-03-03T08:33:51;32.28;;;16.75;;
24813;SDS011;12904;50.088;11.414;2023-03-03T08:36:17;29.45;;;16.67;;
24813;SDS011;12904;50.088;11.414;2023-03-03T08:38:43;30.13;;;16.50;;
24813;SDS011;12904;50.088;11.414;2023-03-03T08:41:08;29.50;;;16.10;;
24813;SDS011;12904;50.088;11.414;2023-03-03T08:43:34;26.55;;;15.60;;
24813;SDS011;12904;50.088;11.414;2023-03-03T08:46:00;28.10;;;16.13;;
24813;SDS011;12904;50.088;11.414;2023-03-03T08:48:28;26.70;;;15.18;;
24813;SDS011;12904;50.088;11.414;2023-03-03T08:50:54;34.88;;;17.98;;
24813;SDS011;12904;50.088;11.414;2023-03-03T08:53:19;35.92;;;17.92;;
24813;SDS011;12904;50.088;11.414;2023-03-03T08:55:46;25.80;;;16.23;;
24813;SDS011;12904;50.088;11.414;2023-03-03T08:58:12;34.85;;;18.38;;
24813;SDS011;12904;50.088;11.414;2023-03-03T09:00:40;29.55;;;16.52;;
24813;SDS011;12904;50.088;11.414;2023-03-03T09:03:06;31.95;;;17.00;;
24813;SDS011;12904;50.088;11.414;2023-03-03T09:05:32;34.17;;;18.08;;
24813;SDS011;12904;50.088;11.414;2023-03-03T09:07:59;32.63;;;16.75;;
24813;SDS011;12904;50.088;11.414;2023-03-03T09:10:25;29.83;;;16.75;;
24813;SDS011;12904;50.088;11.414;2023-03-03T09:12:54;30.58;;;15.50;;
24813;SDS011;12904;50.088;11.414;2023-03-03T09:15:24;26.92;;;15.95;;
24813;SDS011;12904;50.088;11.414;2023-03-03T09:17:52;34.90;;;17.27;;
24813;SDS011;12904;50.088;11.414;2023-03-03T09:23:46;29.88;;;17.30;;
24813;SDS011;12904;50.088;11.414;2023-03-03T09:26:11;25.27;;;14.55;;
24813;SDS011;12904;50.088;11.414;2023-03-03T09:28:46;17.52;;;12.38;;
24813;SDS011;12904;50.088;11.414;2023-03-03T09:31:25;19.75;;;13.65;;
24813;SDS011;12904;50.088;11.414;2023-03-03T09:33:56;19.27;;;12.55;;
24813;SDS011;12904;50.088;11.414;2023-03-03T09:36:34;17.17;;;13.00;;
24813;SDS011;12904;50.088;11.414;2023-03-03T09:39:10;15.27;;;12.35;;
24813;SDS011;12904;50.088;11.414;2023-03-03T10:08:23;15.18;;;13.23;;
24813;SDS011;12904;50.088;11.414;2023-03-03T10:11:16;14.77;;;11.85;;
24813;SDS011;12904;50.088;11.414;2023-03-03T10:30:53;11.90;;;10.70;;
24813;SDS011;12904;50.088;11.414;2023-03-03T10:50:12;13.07;;;10.82;;
24813;SDS011;12904;50.088;11.414;2023-03-03T10:55:32;14.65;;;11.40;;
24813;SDS011;12904;50.088;11.414;2023-03-03T11:00:33;12.50;;;11.10;;
24813;SDS011;12904;50.088;11.414;2023-03-03T11:06:25;11.30;;;9.98;;
24813;SDS011;12904;50.088;11.414;2023-03-03T11:11:27;11.13;;;8.98;;
24813;SDS011;12904;50.088;11.414;2023-03-03T11:33:14;10.45;;;8.45;;
24813;SDS011;12904;50.088;11.414;2023-03-03T11:38:23;13.15;;;8.35;;
24813;SDS011;12904;50.088;11.414;2023-03-03T11:40:56;11.02;;;8.52;;
24813;SDS011;12904;50.088;11.414;2023-03-03T11:43:43;11.68;;;9.60;;
24813;SDS011;12904;50.088;11.414;2023-03-03T11:46:17;12.02;;;9.05;;
24813;SDS011;12904;50.088;11.414;2023-03-03T11:51:56;13.40;;;8.30;;
24813;SDS011;12904;50.088;11.414;2023-03-03T11:54:41;15.02;;;8.80;;
24813;SDS011;12904;50.088;11.414;2023-03-03T11:57:22;13.02;;;9.77;;
24813;SDS011;12904;50.088;11.414;2023-03-03T12:35:55;11.88;;;8.57;;
24813;SDS011;12904;50.088;11.414;2023-03-03T12:38:22;9.82;;;8.25;;
24813;SDS011;12904;50.088;11.414;2023-03-03T12:48:44;12.38;;;9.70;;
24813;SDS011;12904;50.088;11.414;2023-03-03T13:02:29;13.00;;;8.00;;
24813;SDS011;12904;50.088;11.414;2023-03-03T13:15:35;10.73;;;8.55;;
24813;SDS011;12904;50.088;11.414;2023-03-03T13:18:30;12.02;;;8.65;;
24813;SDS011;12904;50.088;11.414;2023-03-03T13:29:26;10.55;;;7.63;;
24813;SDS011;12904;50.088;11.414;2023-03-03T13:31:56;12.55;;;8.00;;
24813;SDS011;12904;50.088;11.414;2023-03-03T13:34:29;8.65;;;7.30;;
24813;SDS011;12904;50.088;11.414;2023-03-03T13:42:41;16.05;;;11.10;;
24813;SDS011;12904;50.088;11.414;2023-03-03T13:45:14;15.85;;;10.55;;
24813;SDS011;12904;50.088;11.414;2023-03-03T13:50:24;18.20;;;11.65;;
24813;SDS011;12904;50.088;11.414;2023-03-03T13:56:06;17.05;;;9.23;;
24813;SDS011;12904;50.088;11.414;2023-03-03T14:07:34;15.30;;;10.02;;
24813;SDS011;12904;50.088;11.414;2023-03-03T14:10:08;12.23;;;9.18;;
24813;SDS011;12904;50.088;11.414;2023-03-03T14:15:30;12.57;;;9.38;;
24813;SDS011;12904;50.088;11.414;2023-03-03T14:20:51;16.48;;;11.13;;
24813;SDS011;12904;50.088;11.414;2023-03-03T14:23:24;13.25;;;9.23;;
24813;SDS011;12904;50.088;11.414;2023-03-03T14:26:05;15.25;;;11.80;;
24813;SDS011;12904;50.088;11.414;2023-03-03T14:28:40;19.63;;;11.57;;
24813;SDS011;12904;50.088;11.414;2023-03-03T14:31:51;16.88;;;11.25;;
24813;SDS011;12904;50.088;11.414;2023-03-03T14:36:48;29.05;;;19.08;;
24813;SDS011;12904;50.088;11.414;2023-03-03T14:42:11;12.25;;;9.23;;
24813;SDS011;12904;50.088;11.414;2023-03-03T14:44:57;15.93;;;10.35;;
24813;SDS011;12904;50.088;11.414;2023-03-03T14:47:25;13.95;;;10.13;;
24813;SDS011;12904;50.088;11.414;2023-03-03T14:49:53;16.40;;;10.88;;
24813;SDS011;12904;50.088;11.414;2023-03-03T14:52:27;17.08;;;12.02;;
24813;SDS011;12904;50.088;11.414;2023-03-03T14:54:55;14.32;;;11.43;;
24813;SDS011;12904;50.088;11.414;2023-03-03T15:07:46;16.98;;;11.48;;
24813;SDS011;12904;50.088;11.414;2023-03-03T15:10:25;20.63;;;12.23;;
24813;SDS011;12904;50.088;11.414;2023-03-03T15:12:53;20.50;;;14.80;;
24813;SDS011;12904;50.088;11.414;2023-03-03T15:15:20;19.50;;;12.77;;
24813;SDS011;12904;50.088;11.414;2023-03-03T15:28:38;19.48;;;11.05;;
24813;SDS011;12904;50.088;11.414;2023-03-03T15:31:11;15.88;;;11.50;;
24813;SDS011;12904;50.088;11.414;2023-03-03T15:36:54;28.02;;;14.32;;
24813;SDS011;12904;50.088;11.414;2023-03-03T15:45:35;23.00;;;13.57;;
24813;SDS011;12904;50.088;11.414;2023-03-03T15:48:09;22.40;;;12.52;;
24813;SDS011;12904;50.088;11.414;2023-03-03T15:51:02;20.00;;;13.30;;
24813;SDS011;12904;50.088;11.414;2023-03-03T16:02:15;22.23;;;13.55;;
24813;SDS011;12904;50.088;11.414;2023-03-03T16:04:48;20.80;;;13.38;;
24813;SDS011;12904;50.088;11.414;2023-03-03T16:07:27;18.73;;;10.80;;
24813;SDS011;12904;50.088;11.414;2023-03-03T16:12:53;14.55;;;10.38;;
24813;SDS011;12904;50.088;11.414;2023-03-03T16:18:32;25.50;;;12.95;;
24813;SDS011;12904;50.088;11.414;2023-03-03T16:24:28;27.65;;;15.90;;
24813;SDS011;12904;50.088;11.414;2023-03-03T16:33:04;17.90;;;11.88;;
24813;SDS011;12904;50.088;11.414;2023-03-03T16:38:31;18.73;;;11.88;;
24813;SDS011;12904;50.088;11.414;2023-03-03T16:41:04;22.52;;;12.23;;
24813;SDS011;12904;50.088;11.414;2023-03-03T16:46:39;17.40;;;9.77;;
24813;SDS011;12904;50.088;11.414;2023-03-03T16:52:31;15.85;;;10.80;;
24813;SDS011;12904;50.088;11.414;2023-03-03T16:54:56;20.13;;;12.13;;
24813;SDS011;12904;50.088;11.414;2023-03-03T16:57:37;14.35;;;10.00;;
24813;SDS011;12904;50.088;11.414;2023-03-03T17:00:35;13.80;;;10.02;;
24813;SDS011;12904;50.088;11.414;2023-03-03T17:05:59;15.75;;;10.05;;
24813;SDS011;12904;50.088;11.414;2023-03-03T17:11:30;15.07;;;10.55;;
24813;SDS011;12904;50.088;11.414;2023-03-03T17:25:04;32.78;;;14.32;;
24813;SDS011;12904;50.088;11.414;2023-03-03T17:30:24;18.52;;;9.77;;
24813;SDS011;12904;50.088;11.414;2023-03-03T17:33:14;16.25;;;10.65;;
24813;SDS011;12904;50.088;11.414;2023-03-03T17:46:14;14.98;;;11.02;;
24813;SDS011;12904;50.088;11.414;2023-03-03T17:59:41;22.52;;;12.00;;
24813;SDS011;12904;50.088;11.414;2023-03-03T18:08:08;19.35;;;11.90;;
24813;SDS011;12904;50.088;11.414;2023-03-03T18:20:19;16.08;;;11.20;;
24813;SDS011;12904;50.088;11.414;2023-03-03T18:22:54;14.70;;;10.45;;
24813;SDS011;12904;50.088;11.414;2023-03-03T18:25:24;16.83;;;11.80;;
24813;SDS011;12904;50.088;11.414;2023-03-03T18:28:20;19.45;;;12.02;;
24813;SDS011;12904;50.088;11.414;2023-03-03T18:36:12;28.63;;;18.58;;
24813;SDS011;12904;50.088;11.414;2023-03-03T18:39:03;13.20;;;10.15;;
24813;SDS011;12904;50.088;11.414;2023-03-03T18:41:31;17.27;;;11.70;;
24813;SDS011;12904;50.088;11.414;2023-03-03T18:44:24;16.25;;;10.82;;
24813;SDS011;12904;50.088;11.414;2023-03-03T18:46:53;16.40;;;10.65;;
24813;SDS011;12904;50.088;11.414;2023-03-03T18:49:46;14.68;;;10.18;;
24813;SDS011;12904;50.088;11.414;2023-03-03T18:55:03;16.55;;;10.77;;
24813;SDS011;12904;50.088;11.414;2023-03-03T19:06:43;14.40;;;12.07;;
24813;SDS011;12904;50.088;11.414;2023-03-03T19:20:56;15.90;;;11.90;;
24813;SDS011;12904;50.088;11.414;2023-03-03T19:23:55;17.65;;;11.80;;
24813;SDS011;12904;50.088;11.414;2023-03-03T19:34:48;18.65;;;11.07;;
24813;SDS011;12904;50.088;11.414;2023-03-03T19:37:47;15.00;;;11.98;;
24813;SDS011;12904;50.088;11.414;2023-03-03T19:49:23;17.13;;;13.18;;
24813;SDS011;12904;50.088;11.414;2023-03-03T19:57:00;11.85;;;9.73;;
24813;SDS011;12904;50.088;11.414;2023-03-03T19:59:35;13.18;;;9.70;;
24813;SDS011;12904;50.088;11.414;2023-03-03T20:05:06;12.75;;;9.40;;
24813;SDS011;12904;50.088;11.414;2023-03-03T20:10:49;15.27;;;9.10;;
24813;SDS011;12904;50.088;11.414;2023-03-03T20:16:38;12.30;;;10.10;;
24813;SDS011;12904;50.088;11.414;2023-03-03T20:22:26;14.43;;;10.52;;
24813;SDS011;12904;50.088;11.414;2023-03-03T20:25:04;11.50;;;9.65;;
24813;SDS011;12904;50.088;11.414;2023-03-03T20:27:51;13.90;;;10.20;;
24813;SDS011;12904;50.088;11.414;2023-03-03T20:36:18;16.42;;;10.10;;
24813;SDS011;12904;50.088;11.414;2023-03-03T20:55:13;11.07;;;8.93;;
24813;SDS011;12904;50.088;11.414;2023-03-03T21:00:26;18.10;;;11.55;;
24813;SDS011;12904;50.088;11.414;2023-03-03T21:05:54;15.93;;;10.85;;
24813;SDS011;12904;50.088;11.414;2023-03-03T21:08:52;14.80;;;11.90;;
24813;SDS011;12904;50.088;11.414;2023-03-03T21:13:54;15.15;;;10.90;;
24813;SDS011;12904;50.088;11.414;2023-03-03T21:21:33;13.68;;;11.98;;
24813;SDS011;12904;50.088;11.414;2023-03-03T21:24:03;16.23;;;11.85;;
24813;SDS011;12904;50.088;11.414;2023-03-03T21:26:45;19.60;;;14.30;;
24813;SDS011;12904;50.088;11.414;2023-03-03T21:29:15;83.80;;;41.53;;
24813;SDS011;12904;50.088;11.414;2023-03-03T21:31:42;58.53;;;31.90;;
24813;SDS011;12904;50.088;11.414;2023-03-03T21:36:56;42.25;;;24.45;;
24813;SDS011;12904;50.088;11.414;2023-03-03T21:42:03;15.95;;;10.55;;
24813;SDS011;12904;50.088;11.414;2023-03-03T21:47:10;19.45;;;11.13;;
24813;SDS011;12904;50.088;11.414;2023-03-03T21:49:47;17.50;;;11.85;;
24813;SDS011;12904;50.088;11.414;2023-03-03T21:52:15;20.50;;;11.60;;
24813;SDS011;12904;50.088;11.414;2023-03-03T21:54:42;20.80;;;13.60;;
24813;SDS011;12904;50.088;11.414;2023-03-03T21:57:10;19.05;;;12.00;;
24813;SDS011;12904;50.088;11.414;2023-03-03T21:59:36;18.40;;;12.80;;
24813;SDS011;12904;50.088;11.414;2023-03-03T22:02:02;25.35;;;14.93;;
24813;SDS011;12904;50.088;11.414;2023-03-03T22:04:28;18.88;;;12.52;;
24813;SDS011;12904;50.088;11.414;2023-03-03T22:06:54;32.53;;;17.30;;
24813;SDS011;12904;50.088;11.414;2023-03-03T22:09:20;16.92;;;12.82;;
24813;SDS011;12904;50.088;11.414;2023-03-03T22:11:46;40.00;;;20.42;;
24813;SDS011;12904;50.088;11.414;2023-03-03T22:14:12;42.70;;;23.75;;